Time;durP1;ratioP1;P1;durP2;ratioP2;P2;SDS_P1;SDS_P2;PMS_P1;PMS_P2;Temp;Humidity;BMP_temperature;BMP_pressure;BME280_temperature;BME280_humidity;BME280_pressure;Samples;Min_cycle;Max_cycle;Signal;HPM_P1;HPM_P2
2021/07/08 00:01:45;;;;;;;4.50;3.57;;;;;;;;;;5036702;28;20470;-72
2021/07/08 00:04:12;;;;;;;3.70;3.40;;;;;;;;;;5036781;28;20421;-73
2021/07/08 00:06:38;;;;;;;4.43;3.50;;;;;;;;;;5036343;28;20420;-71
2021/07/08 00:09:06;;;;;;;4.73;4.23;;;;;;;;;;5036564;28;20876;-75
2021/07/08 00:11:32;;;;;;;5.00;3.50;;;;;;;;;;5036386;28;20874;-73
2021/07/08 00:13:58;;;;;;;4.33;3.93;;;;;;;;;;5036799;28;20435;-72
2021/07/08 00:16:24;;;;;;;6.13;3.80;;;;;;;;;;5036158;28;20416;-75
2021/07/08 00:18:52;;;;;;;3.47;3.17;;;;;;;;;;5035966;28;20769;-73
2021/07/08 00:21:18;;;;;;;5.33;3.87;;;;;;;;;;5036189;28;20465;-77
2021/07/08 00:23:44;;;;;;;5.67;4.60;;;;;;;;;;5036255;28;20431;-77
2021/07/08 00:26:10;;;;;;;6.00;4.27;;;;;;;;;;5038908;28;20921;-77
2021/07/08 00:28:36;;;;;;;4.63;3.67;;;;;;;;;;5039560;28;20428;-73
2021/07/08 00:31:02;;;;;;;5.20;4.27;;;;;;;;;;5035810;28;20463;-76
2021/07/08 00:33:28;;;;;;;4.50;4.10;;;;;;;;;;5036086;28;20774;-74
2021/07/08 00:35:54;;;;;;;5.20;4.70;;;;;;;;;;5034858;28;20420;-77
2021/07/08 00:38:20;;;;;;;5.93;4.47;;;;;;;;;;5035503;28;20408;-72
2021/07/08 00:40:46;;;;;;;5.00;4.57;;;;;;;;;;5035733;28;20917;-76
2021/07/08 00:43:13;;;;;;;4.20;3.80;;;;;;;;;;5035822;28;20498;-76
2021/07/08 00:45:39;;;;;;;4.67;4.07;;;;;;;;;;5036019;28;20424;-71
2021/07/08 00:48:06;;;;;;;4.90;4.50;;;;;;;;;;5035720;28;20424;-73
2021/07/08 00:50:36;;;;;;;7.70;4.73;;;;;;;;;;5035407;28;20436;-75
2021/07/08 00:53:03;;;;;;;4.63;4.23;;;;;;;;;;5035774;28;20419;-71
2021/07/08 00:55:29;;;;;;;5.00;4.50;;;;;;;;;;5035672;28;20415;-77
2021/07/08 00:57:55;;;;;;;5.90;4.40;;;;;;;;;;5035113;28;20419;-74
2021/07/08 01:00:26;;;;;;;4.77;4.30;;;;;;;;;;5035128;28;20480;-72
2021/07/08 01:02:54;;;;;;;5.20;4.57;;;;;;;;;;5034285;28;20420;-74
2021/07/08 01:05:21;;;;;;;4.70;4.27;;;;;;;;;;5035451;28;20424;-74
2021/07/08 01:07:48;;;;;;;4.93;4.10;;;;;;;;;;5035013;28;20474;-77
2021/07/08 01:10:15;;;;;;;4.40;4.00;;;;;;;;;;5035068;28;20441;-73
2021/07/08 01:12:41;;;;;;;5.80;5.20;;;;;;;;;;5035398;28;20474;-75
2021/07/08 01:15:08;;;;;;;4.90;4.43;;;;;;;;;;5034981;28;20463;-73
2021/07/08 01:17:34;;;;;;;5.27;4.80;;;;;;;;;;5034540;28;20415;-78
2021/07/08 01:20:00;;;;;;;6.17;4.73;;;;;;;;;;5034909;28;20447;-74
2021/07/08 01:22:26;;;;;;;6.20;5.27;;;;;;;;;;5034697;28;20797;-74
2021/07/08 01:24:52;;;;;;;4.73;4.33;;;;;;;;;;5034651;28;20412;-74
2021/07/08 01:27:18;;;;;;;5.40;5.00;;;;;;;;;;5034406;28;20408;-73
2021/07/08 01:29:44;;;;;;;5.73;5.23;;;;;;;;;;5034575;28;20443;-73
2021/07/08 01:32:10;;;;;;;8.40;6.13;;;;;;;;;;5034507;28;20809;-74
2021/07/08 01:34:36;;;;;;;6.70;6.00;;;;;;;;;;5034975;28;20415;-73
2021/07/08 01:37:03;;;;;;;8.20;6.60;;;;;;;;;;5034119;28;20408;-75
2021/07/08 01:39:29;;;;;;;5.80;5.30;;;;;;;;;;5034683;28;20786;-72
2021/07/08 01:41:55;;;;;;;6.60;4.80;;;;;;;;;;5034626;28;20424;-74
2021/07/08 01:44:21;;;;;;;5.20;4.70;;;;;;;;;;5034703;28;20413;-75
2021/07/08 01:46:47;;;;;;;5.10;4.70;;;;;;;;;;5033791;28;20416;-76
2021/07/08 01:49:13;;;;;;;5.20;4.70;;;;;;;;;;5034454;28;20421;-76
2021/07/08 01:51:39;;;;;;;7.17;4.97;;;;;;;;;;5034073;28;20452;-72
2021/07/08 01:54:08;;;;;;;5.63;5.07;;;;;;;;;;5035336;28;20441;-75
2021/07/08 01:56:34;;;;;;;5.53;5.03;;;;;;;;;;5034672;28;20761;-75
2021/07/08 01:59:01;;;;;;;5.90;5.30;;;;;;;;;;5034328;28;20436;-74
2021/07/08 02:01:27;;;;;;;5.70;5.10;;;;;;;;;;5034634;28;20445;-73
2021/07/08 02:03:53;;;;;;;5.40;4.70;;;;;;;;;;5034543;28;20766;-73
2021/07/08 02:06:19;;;;;;;5.80;5.10;;;;;;;;;;5034647;28;20416;-74
2021/07/08 02:08:46;;;;;;;5.20;4.70;;;;;;;;;;5033781;28;20981;-77
2021/07/08 02:11:12;;;;;;;6.83;5.10;;;;;;;;;;5034051;28;20985;-75
2021/07/08 02:13:39;;;;;;;8.23;5.20;;;;;;;;;;5034350;28;20412;-74
2021/07/08 02:16:06;;;;;;;5.67;4.80;;;;;;;;;;5032728;28;20435;-73
2021/07/08 02:18:32;;;;;;;8.10;5.30;;;;;;;;;;5034048;28;20507;-74
2021/07/08 02:20:58;;;;;;;5.30;4.90;;;;;;;;;;5033858;28;20432;-75
2021/07/08 02:23:24;;;;;;;5.60;5.10;;;;;;;;;;5034194;28;20413;-74
2021/07/08 02:25:50;;;;;;;6.50;5.30;;;;;;;;;;5034051;28;20968;-74
2021/07/08 02:28:17;;;;;;;5.37;4.87;;;;;;;;;;5034286;28;20781;-75
2021/07/08 02:30:43;;;;;;;5.87;5.37;;;;;;;;;;5034067;28;20464;-72
2021/07/08 02:33:09;;;;;;;5.60;5.20;;;;;;;;;;5033753;28;20439;-76
2021/07/08 02:35:36;;;;;;;5.40;4.90;;;;;;;;;;5033900;28;20465;-74
2021/07/08 02:38:03;;;;;;;5.77;5.27;;;;;;;;;;5033259;28;20422;-72
2021/07/08 02:40:30;;;;;;;7.73;4.50;;;;;;;;;;5033568;28;20454;-75
2021/07/08 02:42:57;;;;;;;5.07;4.47;;;;;;;;;;5033579;28;20502;-74
2021/07/08 02:45:24;;;;;;;5.73;4.80;;;;;;;;;;5033592;28;20408;-75
2021/07/08 02:47:52;;;;;;;6.40;4.73;;;;;;;;;;5032914;28;20410;-74
2021/07/08 02:50:18;;;;;;;5.40;4.90;;;;;;;;;;5033227;28;20478;-73
2021/07/08 02:52:44;;;;;;;8.10;4.70;;;;;;;;;;5033596;28;20513;-72
2021/07/08 02:55:11;;;;;;;5.40;4.87;;;;;;;;;;5033546;28;20739;-75
2021/07/08 02:57:38;;;;;;;5.60;5.17;;;;;;;;;;5032734;28;20812;-72
2021/07/08 03:00:05;;;;;;;7.80;5.30;;;;;;;;;;5032937;28;20868;-72
2021/07/08 03:02:31;;;;;;;5.80;5.20;;;;;;;;;;5033373;28;20406;-76
2021/07/08 03:04:57;;;;;;;5.73;5.17;;;;;;;;;;5033234;28;20412;-74
2021/07/08 03:07:23;;;;;;;7.30;5.20;;;;;;;;;;5032620;28;20761;-77
2021/07/08 03:09:49;;;;;;;7.33;5.33;;;;;;;;;;5032861;28;20431;-76
2021/07/08 03:12:15;;;;;;;6.03;5.50;;;;;;;;;;5032957;28;20456;-74
2021/07/08 03:14:41;;;;;;;5.53;5.03;;;;;;;;;;5033002;28;20413;-72
2021/07/08 03:17:07;;;;;;;6.33;5.50;;;;;;;;;;5032383;28;20417;-76
2021/07/08 03:19:33;;;;;;;5.73;5.20;;;;;;;;;;5032646;28;20950;-74
2021/07/08 03:21:59;;;;;;;5.90;5.50;;;;;;;;;;5032747;28;20423;-74
2021/07/08 03:24:25;;;;;;;6.67;5.80;;;;;;;;;;5032891;28;20419;-72
2021/07/08 03:26:51;;;;;;;7.33;5.27;;;;;;;;;;5032651;28;20439;-74
2021/07/08 03:29:17;;;;;;;6.87;5.20;;;;;;;;;;5028642;28;20424;-74
2021/07/08 03:31:43;;;;;;;5.53;5.13;;;;;;;;;;5032648;28;20450;-75
2021/07/08 03:34:09;;;;;;;5.40;4.90;;;;;;;;;;5033021;28;20728;-73
2021/07/08 03:36:35;;;;;;;6.70;6.00;;;;;;;;;;5032816;28;20459;-73
2021/07/08 03:39:01;;;;;;;5.83;5.23;;;;;;;;;;5032817;28;20503;-72
2021/07/08 03:41:27;;;;;;;5.70;5.17;;;;;;;;;;5032697;28;20464;-74
2021/07/08 03:43:53;;;;;;;6.83;5.10;;;;;;;;;;5032708;28;20495;-75
2021/07/08 03:46:19;;;;;;;6.20;5.03;;;;;;;;;;5032835;28;20444;-72
2021/07/08 03:48:45;;;;;;;5.87;5.17;;;;;;;;;;5032444;28;20666;-75
2021/07/08 03:51:11;;;;;;;6.70;5.60;;;;;;;;;;5032883;28;20456;-76
2021/07/08 03:53:37;;;;;;;5.37;4.80;;;;;;;;;;5032867;28;20404;-72
2021/07/08 03:56:03;;;;;;;4.83;3.83;;;;;;;;;;5032852;28;20411;-76
2021/07/08 03:58:29;;;;;;;5.13;4.63;;;;;;;;;;5032299;28;20491;-73
2021/07/08 04:00:55;;;;;;;4.53;4.20;;;;;;;;;;5032580;28;20971;-75
2021/07/08 04:03:21;;;;;;;5.10;4.20;;;;;;;;;;5032675;28;20908;-75
2021/07/08 04:05:48;;;;;;;7.10;4.90;;;;;;;;;;5032602;28;20423;-74
2021/07/08 04:08:15;;;;;;;5.40;4.90;;;;;;;;;;5032198;28;20424;-74
2021/07/08 04:10:41;;;;;;;5.67;4.80;;;;;;;;;;5033644;28;20453;-72
2021/07/08 04:13:09;;;;;;;4.97;4.43;;;;;;;;;;5036291;28;20417;-75
2021/07/08 04:15:36;;;;;;;7.50;4.50;;;;;;;;;;5036591;28;20416;-75
2021/07/08 04:18:03;;;;;;;5.13;4.73;;;;;;;;;;5035826;28;20408;-78
2021/07/08 04:20:29;;;;;;;5.30;4.80;;;;;;;;;;5036096;28;20921;-76
2021/07/08 04:22:55;;;;;;;5.90;4.97;;;;;;;;;;5036212;28;20499;-72
2021/07/08 04:25:21;;;;;;;6.17;5.60;;;;;;;;;;5036231;28;20802;-76
2021/07/08 04:27:48;;;;;;;6.00;5.50;;;;;;;;;;5043628;28;20419;-74
2021/07/08 04:30:16;;;;;;;6.20;5.70;;;;;;;;;;5035742;28;20458;-75
2021/07/08 04:32:42;;;;;;;6.70;6.00;;;;;;;;;;5035790;28;20980;-76
2021/07/08 04:35:10;;;;;;;6.77;6.17;;;;;;;;;;5035731;28;20494;-72
2021/07/08 04:37:41;;;;;;;7.67;6.13;;;;;;;;;;5035701;28;20408;-71
2021/07/08 04:40:08;;;;;;;5.97;5.47;;;;;;;;;;5036396;28;20797;-76
2021/07/08 04:42:34;;;;;;;6.03;5.43;;;;;;;;;;5035807;28;20422;-75
2021/07/08 04:45:01;;;;;;;6.53;5.70;;;;;;;;;;5035759;28;20447;-72
2021/07/08 04:47:27;;;;;;;9.40;5.90;;;;;;;;;;5035467;28;20452;-74
2021/07/08 04:49:53;;;;;;;6.13;5.70;;;;;;;;;;5035688;28;20447;-71
2021/07/08 04:52:19;;;;;;;6.87;6.37;;;;;;;;;;5035519;28;20463;-75
2021/07/08 04:54:45;;;;;;;7.57;6.23;;;;;;;;;;5035586;28;20468;-72
2021/07/08 04:57:11;;;;;;;6.33;5.73;;;;;;;;;;5035093;28;20886;-75
2021/07/08 04:59:37;;;;;;;8.60;6.77;;;;;;;;;;5035277;28;20444;-74
2021/07/08 05:02:03;;;;;;;7.43;6.70;;;;;;;;;;5035649;28;20413;-71
2021/07/08 05:04:29;;;;;;;8.10;7.17;;;;;;;;;;5035551;28;20894;-72
2021/07/08 05:06:55;;;;;;;8.70;7.40;;;;;;;;;;5035059;28;20558;-76
2021/07/08 05:09:21;;;;;;;7.50;6.80;;;;;;;;;;5035234;28;20441;-73
2021/07/08 05:11:47;;;;;;;8.37;7.13;;;;;;;;;;5035402;28;20511;-73
2021/07/08 05:14:13;;;;;;;8.00;7.27;;;;;;;;;;5035063;28;20854;-74
2021/07/08 05:16:39;;;;;;;9.97;6.83;;;;;;;;;;5034761;28;20447;-73
2021/07/08 05:19:05;;;;;;;7.43;6.80;;;;;;;;;;5035275;28;20412;-73
2021/07/08 05:21:31;;;;;;;7.73;6.80;;;;;;;;;;5033310;28;20447;-73
2021/07/08 05:24:00;;;;;;;6.80;6.20;;;;;;;;;;5035183;28;20420;-72
2021/07/08 05:26:27;;;;;;;7.30;6.70;;;;;;;;;;5035424;28;20413;-76
2021/07/08 05:28:53;;;;;;;8.63;7.60;;;;;;;;;;5034039;28;20827;-72
2021/07/08 05:31:19;;;;;;;9.30;7.77;;;;;;;;;;5034851;28;20895;-71
2021/07/08 05:33:45;;;;;;;8.73;8.00;;;;;;;;;;5034796;28;20463;-77
2021/07/08 05:36:11;;;;;;;7.63;7.03;;;;;;;;;;5034195;28;20427;-73
2021/07/08 05:38:37;;;;;;;8.73;7.83;;;;;;;;;;5034362;28;20461;-73
2021/07/08 05:41:03;;;;;;;11.30;8.10;;;;;;;;;;5034606;28;20453;-74
2021/07/08 05:43:29;;;;;;;8.47;7.43;;;;;;;;;;5034657;28;20491;-73
2021/07/08 05:45:55;;;;;;;8.33;7.63;;;;;;;;;;5034448;28;20417;-74
2021/07/08 05:48:21;;;;;;;8.23;7.50;;;;;;;;;;5033935;28;20414;-75
2021/07/08 05:50:47;;;;;;;7.97;7.27;;;;;;;;;;5034042;28;20947;-74
2021/07/08 05:53:13;;;;;;;8.63;7.83;;;;;;;;;;5026825;28;20416;-73
2021/07/08 05:55:39;;;;;;;9.03;8.10;;;;;;;;;;5034321;28;20838;-74
2021/07/08 05:58:05;;;;;;;8.60;7.80;;;;;;;;;;5033318;28;20451;-75
2021/07/08 06:00:31;;;;;;;7.53;6.93;;;;;;;;;;5033936;28;20490;-76
2021/07/08 06:02:57;;;;;;;9.50;8.13;;;;;;;;;;5034061;28;20416;-75
2021/07/08 06:05:23;;;;;;;10.30;9.30;;;;;;;;;;5033905;28;20471;-74
2021/07/08 06:07:50;;;;;;;9.87;8.87;;;;;;;;;;5033865;28;20894;-75
2021/07/08 06:10:16;;;;;;;9.57;7.80;;;;;;;;;;5033944;28;20429;-76
2021/07/08 06:12:42;;;;;;;8.13;7.33;;;;;;;;;;5033961;28;20551;-74
2021/07/08 06:15:08;;;;;;;8.33;7.53;;;;;;;;;;5034159;28;20417;-76
2021/07/08 06:17:35;;;;;;;7.33;6.57;;;;;;;;;;5033780;28;20448;-75
2021/07/08 06:20:01;;;;;;;9.30;7.80;;;;;;;;;;5040099;28;20433;-76
2021/07/08 06:22:28;;;;;;;8.87;8.07;;;;;;;;;;5034004;28;20442;-75
2021/07/08 06:24:54;;;;;;;8.60;7.90;;;;;;;;;;5033700;28;20416;-77
2021/07/08 06:27:20;;;;;;;9.20;8.30;;;;;;;;;;5034402;28;20424;-73
2021/07/08 06:29:46;;;;;;;7.77;6.70;;;;;;;;;;5033829;28;20440;-75
2021/07/08 06:32:14;;;;;;;9.03;6.97;;;;;;;;;;5033684;28;20463;-77
2021/07/08 06:34:40;;;;;;;8.23;7.47;;;;;;;;;;5033104;28;20409;-75
2021/07/08 06:37:06;;;;;;;7.93;7.23;;;;;;;;;;5031176;28;20424;-74
2021/07/08 06:39:32;;;;;;;8.97;7.83;;;;;;;;;;5027194;28;20820;-74
2021/07/08 06:41:58;;;;;;;7.23;6.63;;;;;;;;;;5027961;28;20774;-73
2021/07/08 06:44:24;;;;;;;7.77;6.70;;;;;;;;;;5027359;28;20443;-72
2021/07/08 06:46:52;;;;;;;8.07;7.33;;;;;;;;;;5029584;28;20885;-72
2021/07/08 06:49:18;;;;;;;8.60;7.80;;;;;;;;;;5029450;28;20408;-73
2021/07/08 06:51:44;;;;;;;8.97;8.07;;;;;;;;;;5029538;28;20533;-71
2021/07/08 06:54:10;;;;;;;9.87;8.87;;;;;;;;;;5029134;28;21216;-75
2021/07/08 06:56:36;;;;;;;9.77;7.67;;;;;;;;;;5029191;28;20436;-74
2021/07/08 06:59:02;;;;;;;9.70;8.50;;;;;;;;;;5029355;28;20479;-76
2021/07/08 07:01:28;;;;;;;9.07;8.20;;;;;;;;;;5029422;28;20957;-71
2021/07/08 07:03:54;;;;;;;10.00;8.50;;;;;;;;;;5027416;28;20475;-74
2021/07/08 07:06:20;;;;;;;8.47;7.77;;;;;;;;;;5029594;28;20455;-73
2021/07/08 07:08:46;;;;;;;11.90;9.40;;;;;;;;;;5029672;28;20427;-74
2021/07/08 07:11:12;;;;;;;8.53;7.83;;;;;;;;;;5029133;28;20473;-72
2021/07/08 07:13:38;;;;;;;10.07;8.93;;;;;;;;;;5028040;28;20443;-72
2021/07/08 07:16:04;;;;;;;10.77;9.87;;;;;;;;;;5029154;28;20770;-72
2021/07/08 07:18:30;;;;;;;10.67;9.60;;;;;;;;;;5028898;28;20422;-75
2021/07/08 07:20:56;;;;;;;17.40;15.77;;;;;;;;;;5028690;28;20868;-74
2021/07/08 07:23:22;;;;;;;10.30;9.40;;;;;;;;;;5029059;28;20470;-72
2021/07/08 07:25:48;;;;;;;10.17;9.27;;;;;;;;;;5029108;28;20424;-74
2021/07/08 07:28:14;;;;;;;10.07;9.17;;;;;;;;;;5030126;28;20909;-75
2021/07/08 07:30:41;;;;;;;9.20;8.10;;;;;;;;;;5028915;28;20440;-72
2021/07/08 07:33:07;;;;;;;9.47;8.57;;;;;;;;;;5029225;28;20416;-75
2021/07/08 07:35:33;;;;;;;17.17;9.70;;;;;;;;;;5028927;28;20717;-73
2021/07/08 07:37:59;;;;;;;10.03;9.00;;;;;;;;;;5028689;28;20412;-72
2021/07/08 07:40:25;;;;;;;11.33;8.80;;;;;;;;;;5028814;28;20971;-72
2021/07/08 07:42:52;;;;;;;10.77;8.80;;;;;;;;;;5029031;28;20475;-75
2021/07/08 07:45:18;;;;;;;8.93;8.13;;;;;;;;;;5030937;28;20420;-75
2021/07/08 07:47:46;;;;;;;9.97;9.07;;;;;;;;;;5032762;28;20836;-73
2021/07/08 07:50:12;;;;;;;11.13;8.90;;;;;;;;;;5032891;28;20502;-72
2021/07/08 07:52:38;;;;;;;10.50;8.40;;;;;;;;;;5032828;28;20491;-73
2021/07/08 07:55:04;;;;;;;10.03;9.07;;;;;;;;;;5032659;28;20412;-74
2021/07/08 07:57:32;;;;;;;9.60;8.80;;;;;;;;;;5031778;28;20420;-71
2021/07/08 07:59:58;;;;;;;13.23;8.63;;;;;;;;;;5032647;28;20452;-71
2021/07/08 08:02:24;;;;;;;11.90;8.40;;;;;;;;;;5032050;28;20428;-76
2021/07/08 08:10:16;;;;;;;10.60;9.43;;;;;;;;;;5032407;28;20523;-73
2021/07/08 08:12:42;;;;;;;10.00;8.70;;;;;;;;;;5032480;28;20510;-74
2021/07/08 08:15:09;;;;;;;10.50;8.60;;;;;;;;;;5031983;28;20451;-76
2021/07/08 08:17:36;;;;;;;13.30;8.37;;;;;;;;;;5031970;28;20777;-76
2021/07/08 08:20:03;;;;;;;9.03;8.20;;;;;;;;;;5032317;28;20793;-71
2021/07/08 08:22:29;;;;;;;9.40;8.50;;;;;;;;;;5032183;28;20506;-73
2021/07/08 08:24:55;;;;;;;8.90;8.00;;;;;;;;;;5032173;28;20471;-73
2021/07/08 08:27:22;;;;;;;12.27;8.47;;;;;;;;;;5032736;28;20515;-74
2021/07/08 08:29:48;;;;;;;9.43;7.87;;;;;;;;;;5032005;28;20465;-74
2021/07/08 08:32:14;;;;;;;8.80;8.07;;;;;;;;;;5032034;28;20474;-71
2021/07/08 08:34:40;;;;;;;10.03;7.73;;;;;;;;;;5031962;28;20466;-73
2021/07/08 08:37:06;;;;;;;10.53;9.23;;;;;;;;;;5030964;28;20897;-72
2021/07/08 08:39:33;;;;;;;8.83;7.80;;;;;;;;;;5031941;28;20439;-71
2021/07/08 08:41:59;;;;;;;9.07;8.30;;;;;;;;;;5031860;28;20470;-74
2021/07/08 08:44:25;;;;;;;8.40;7.70;;;;;;;;;;5031444;28;20428;-74
2021/07/08 08:46:52;;;;;;;8.10;7.40;;;;;;;;;;5031466;28;20431;-72
2021/07/08 08:49:18;;;;;;;8.50;7.60;;;;;;;;;;5028460;28;20539;-73
2021/07/08 08:51:44;;;;;;;8.20;7.50;;;;;;;;;;5031871;28;20488;-72
2021/07/08 08:54:12;;;;;;;8.07;7.10;;;;;;;;;;5031957;28;20447;-72
2021/07/08 08:56:38;;;;;;;7.53;6.83;;;;;;;;;;5030219;28;20451;-73
2021/07/08 08:59:04;;;;;;;13.33;7.73;;;;;;;;;;5030982;28;20849;-74
2021/07/08 09:01:30;;;;;;;9.30;6.90;;;;;;;;;;5031497;28;20440;-73
2021/07/08 09:03:56;;;;;;;8.40;7.50;;;;;;;;;;5030235;28;20427;-75
2021/07/08 09:06:23;;;;;;;7.90;7.20;;;;;;;;;;5031445;28;20916;-76
2021/07/08 09:08:50;;;;;;;8.80;6.80;;;;;;;;;;5031343;28;20416;-72
2021/07/08 09:11:18;;;;;;;8.70;6.73;;;;;;;;;;5031106;28;20467;-74
2021/07/08 09:13:52;;;;;;;7.73;6.03;;;;;;;;;;5023615;28;20824;-74
2021/07/08 09:16:20;;;;;;;5.90;5.40;;;;;;;;;;5031437;28;20481;-75
2021/07/08 09:18:55;;;;;;;6.67;5.33;;;;;;;;;;5031232;28;20823;-75
2021/07/08 09:21:22;;;;;;;6.17;5.60;;;;;;;;;;5031208;28;20837;-76
2021/07/08 09:24:03;;;;;;;5.97;5.37;;;;;;;;;;5031416;28;20424;-73
2021/07/08 09:26:29;;;;;;;6.70;5.10;;;;;;;;;;5027952;28;20877;-74
2021/07/08 09:29:03;;;;;;;6.23;5.30;;;;;;;;;;5030551;28;20424;-73
2021/07/08 09:31:29;;;;;;;6.20;4.57;;;;;;;;;;5029975;28;20520;-73
2021/07/08 09:33:55;;;;;;;4.90;4.50;;;;;;;;;;5029542;28;20425;-75
2021/07/08 09:36:21;;;;;;;4.80;4.40;;;;;;;;;;5030809;28;20785;-76
2021/07/08 09:38:48;;;;;;;5.83;3.40;;;;;;;;;;5030410;28;20502;-73
2021/07/08 09:41:17;;;;;;;4.77;3.37;;;;;;;;;;5030517;28;20479;-74
2021/07/08 09:43:43;;;;;;;4.83;3.43;;;;;;;;;;5030967;28;20421;-75
2021/07/08 09:46:10;;;;;;;5.37;4.30;;;;;;;;;;5030877;28;20416;-73
2021/07/08 09:48:37;;;;;;;4.70;4.30;;;;;;;;;;5030351;28;20420;-72
2021/07/08 09:51:03;;;;;;;5.23;4.50;;;;;;;;;;5030564;28;20602;-74
2021/07/08 09:53:29;;;;;;;5.20;4.70;;;;;;;;;;5030367;28;20448;-73
2021/07/08 09:58:50;;;;;;;5.90;4.73;;;;;;;;;;5018459;28;20818;-72
2021/07/08 10:01:16;;;;;;;5.57;5.00;;;;;;;;;;5030090;28;20448;-73
2021/07/08 10:03:48;;;;;;;7.73;5.27;;;;;;;;;;5030262;28;20416;-76
2021/07/08 10:06:14;;;;;;;6.77;5.07;;;;;;;;;;5030422;28;20927;-75
2021/07/08 10:08:40;;;;;;;5.50;5.07;;;;;;;;;;5029856;28;20423;-73
2021/07/08 10:11:07;;;;;;;5.80;4.53;;;;;;;;;;5030109;28;20460;-71
2021/07/08 10:13:33;;;;;;;4.73;4.33;;;;;;;;;;5030194;28;20420;-76
2021/07/08 10:16:04;;;;;;;6.07;4.67;;;;;;;;;;5030238;28;21043;-75
2021/07/08 10:18:32;;;;;;;5.23;4.73;;;;;;;;;;5029917;28;20432;-74
2021/07/08 10:20:58;;;;;;;5.07;4.00;;;;;;;;;;5029972;28;20428;-73
2021/07/08 10:23:26;;;;;;;6.50;4.60;;;;;;;;;;5030168;28;20419;-76
2021/07/08 10:25:52;;;;;;;4.03;3.63;;;;;;;;;;5028764;28;20782;-75
2021/07/08 10:28:18;;;;;;;5.33;4.47;;;;;;;;;;5037521;28;20974;-74
2021/07/08 10:30:45;;;;;;;6.50;4.73;;;;;;;;;;5029522;28;20437;-74
2021/07/08 10:33:11;;;;;;;6.97;4.27;;;;;;;;;;5021768;28;20510;-74
2021/07/08 10:35:38;;;;;;;4.53;4.13;;;;;;;;;;5029877;28;20412;-74
2021/07/08 10:38:23;;;;;;;4.63;4.20;;;;;;;;;;5021638;28;20448;-73
2021/07/08 10:40:49;;;;;;;4.40;3.97;;;;;;;;;;5029497;28;20432;-76
2021/07/08 10:43:16;;;;;;;4.63;4.10;;;;;;;;;;5029757;28;20419;-74
2021/07/08 10:45:43;;;;;;;5.33;4.10;;;;;;;;;;5030030;28;20443;-72
2021/07/08 10:48:09;;;;;;;4.63;4.23;;;;;;;;;;5029489;28;20459;-74
2021/07/08 10:50:43;;;;;;;8.23;5.20;;;;;;;;;;5029686;28;20440;-76
2021/07/08 10:53:14;;;;;;;4.40;4.10;;;;;;;;;;5029667;28;20792;-74
2021/07/08 10:55:42;;;;;;;4.57;3.90;;;;;;;;;;5029496;28;20770;-74
2021/07/08 10:58:28;;;;;;;6.03;4.20;;;;;;;;;;5029388;28;20969;-75
2021/07/08 11:00:54;;;;;;;4.83;4.33;;;;;;;;;;5022170;28;20456;-78
2021/07/08 11:03:40;;;;;;;4.90;4.37;;;;;;;;;;5027836;28;20428;-72
2021/07/08 11:06:20;;;;;;;4.70;4.00;;;;;;;;;;5029252;28;20408;-76
2021/07/08 11:08:46;;;;;;;4.00;3.57;;;;;;;;;;5028783;28;20462;-75
2021/07/08 11:11:13;;;;;;;4.33;3.70;;;;;;;;;;5029067;28;20513;-72
2021/07/08 11:13:39;;;;;;;4.03;3.63;;;;;;;;;;5029242;28;20455;-74
2021/07/08 11:16:05;;;;;;;9.33;8.53;;;;;;;;;;5029282;28;20511;-72
2021/07/08 11:18:31;;;;;;;4.03;3.63;;;;;;;;;;5028716;28;20416;-73
2021/07/08 11:20:57;;;;;;;4.83;4.00;;;;;;;;;;5028387;28;20459;-71
2021/07/08 11:23:40;;;;;;;4.87;3.80;;;;;;;;;;5028991;28;20420;-73
2021/07/08 11:26:08;;;;;;;5.83;4.40;;;;;;;;;;5031294;28;20412;-69
2021/07/08 11:28:34;;;;;;;7.53;4.30;;;;;;;;;;5022916;28;20420;-73
2021/07/08 11:31:02;;;;;;;7.27;4.27;;;;;;;;;;5028703;28;20437;-70
2021/07/08 11:33:30;;;;;;;4.20;3.70;;;;;;;;;;5028966;28;20480;-73
2021/07/08 11:35:57;;;;;;;4.60;3.90;;;;;;;;;;5029194;28;20416;-70
2021/07/08 11:38:25;;;;;;;3.77;3.00;;;;;;;;;;5028598;28;20417;-74
2021/07/08 11:40:53;;;;;;;4.97;3.60;;;;;;;;;;5028781;28;20435;-72
2021/07/08 11:43:19;;;;;;;3.77;3.47;;;;;;;;;;5028724;28;20416;-72
2021/07/08 11:45:45;;;;;;;4.70;3.20;;;;;;;;;;5029014;28;20976;-75
2021/07/08 11:48:11;;;;;;;3.70;3.40;;;;;;;;;;5028760;28;20832;-73
2021/07/08 11:50:39;;;;;;;7.03;3.70;;;;;;;;;;5028893;28;20978;-75
2021/07/08 11:53:13;;;;;;;3.97;3.57;;;;;;;;;;5028825;28;20475;-76
2021/07/08 11:55:43;;;;;;;3.73;3.00;;;;;;;;;;5028771;28;20423;-74
2021/07/08 11:58:10;;;;;;;5.20;3.00;;;;;;;;;;5027894;28;20452;-71
2021/07/08 12:00:41;;;;;;;4.10;3.20;;;;;;;;;;5028806;28;20452;-72
2021/07/08 12:03:27;;;;;;;3.93;3.47;;;;;;;;;;5029059;28;20832;-73
2021/07/08 12:06:07;;;;;;;3.53;3.23;;;;;;;;;;5022887;28;20416;-75
2021/07/08 12:08:47;;;;;;;3.30;3.00;;;;;;;;;;5028554;28;20418;-72
2021/07/08 12:11:18;;;;;;;4.17;3.63;;;;;;;;;;5028584;28;20517;-72
2021/07/08 12:13:52;;;;;;;3.83;3.53;;;;;;;;;;5026346;28;20422;-73
2021/07/08 12:16:19;;;;;;;5.13;3.53;;;;;;;;;;5028618;28;20972;-71
2021/07/08 12:18:49;;;;;;;8.90;4.80;;;;;;;;;;5027953;28;20420;-74
2021/07/08 12:21:19;;;;;;;5.73;3.90;;;;;;;;;;5028531;28;20473;-72
2021/07/08 12:23:45;;;;;;;4.13;3.73;;;;;;;;;;5028447;28;20416;-72
2021/07/08 12:26:30;;;;;;;3.97;3.37;;;;;;;;;;5029279;28;20423;-72
2021/07/08 12:29:11;;;;;;;4.50;4.10;;;;;;;;;;5027727;28;20917;-73
2021/07/08 12:31:45;;;;;;;4.40;3.93;;;;;;;;;;5024159;28;21251;-75
2021/07/08 12:34:11;;;;;;;4.20;3.90;;;;;;;;;;5032302;28;20440;-75
2021/07/08 12:36:37;;;;;;;3.93;3.53;;;;;;;;;;5026747;28;20417;-75
2021/07/08 12:39:04;;;;;;;6.23;4.70;;;;;;;;;;5030998;28;20412;-73
2021/07/08 12:41:30;;;;;;;4.73;4.33;;;;;;;;;;5031699;28;20475;-76
2021/07/08 12:43:56;;;;;;;4.77;4.00;;;;;;;;;;5031544;28;20412;-71
2021/07/08 12:46:28;;;;;;;4.50;4.10;;;;;;;;;;5031825;28;20481;-70
2021/07/08 12:48:55;;;;;;;5.90;5.50;;;;;;;;;;5027653;28;20425;-71
2021/07/08 12:51:21;;;;;;;4.50;4.03;;;;;;;;;;5030126;28;20460;-75
2021/07/08 12:53:48;;;;;;;4.77;4.00;;;;;;;;;;5031772;28;20436;-71
2021/07/08 12:56:14;;;;;;;3.90;3.60;;;;;;;;;;5031750;28;20897;-71
2021/07/08 12:58:41;;;;;;;6.10;3.80;;;;;;;;;;5030526;28;20451;-71
2021/07/08 13:01:08;;;;;;;4.20;3.80;;;;;;;;;;5031660;28;20805;-72
2021/07/08 13:03:35;;;;;;;4.00;3.60;;;;;;;;;;5030306;28;21271;-75
2021/07/08 13:06:11;;;;;;;4.20;3.40;;;;;;;;;;5031720;28;20420;-73
2021/07/08 13:08:37;;;;;;;4.00;3.47;;;;;;;;;;5031301;28;20416;-70
2021/07/08 13:11:07;;;;;;;3.73;3.43;;;;;;;;;;5031368;28;20500;-74
2021/07/08 13:13:34;;;;;;;6.83;3.70;;;;;;;;;;5031468;28;20421;-72
2021/07/08 13:16:00;;;;;;;4.00;3.60;;;;;;;;;;5031322;28;20452;-71
2021/07/08 13:18:30;;;;;;;3.97;3.57;;;;;;;;;;5030995;28;20792;-74
2021/07/08 13:20:56;;;;;;;3.70;3.40;;;;;;;;;;5030634;28;20793;-70
2021/07/08 13:23:24;;;;;;;3.27;2.97;;;;;;;;;;5031189;28;20479;-71
2021/07/08 13:25:51;;;;;;;3.43;3.10;;;;;;;;;;5031206;28;20975;-75
2021/07/08 13:28:25;;;;;;;3.50;3.20;;;;;;;;;;5030821;28;20427;-75
2021/07/08 13:30:58;;;;;;;4.07;3.67;;;;;;;;;;5031048;28;20770;-74
2021/07/08 13:33:33;;;;;;;5.27;3.17;;;;;;;;;;5026659;28;20429;-70
2021/07/08 13:36:04;;;;;;;5.57;4.07;;;;;;;;;;5018127;28;20408;-72
2021/07/08 13:38:32;;;;;;;4.63;3.87;;;;;;;;;;5030624;28;20408;-71
2021/07/08 13:40:58;;;;;;;4.30;3.90;;;;;;;;;;5030937;28;20431;-73
2021/07/08 13:43:42;;;;;;;3.80;3.50;;;;;;;;;;5030565;28;20408;-74
2021/07/08 13:46:15;;;;;;;4.50;3.40;;;;;;;;;;5030177;28;20529;-73
2021/07/08 13:48:42;;;;;;;3.67;3.30;;;;;;;;;;5030133;28;21181;-73
2021/07/08 13:51:09;;;;;;;4.33;3.30;;;;;;;;;;5030853;28;20455;-71
2021/07/08 13:53:36;;;;;;;3.63;3.10;;;;;;;;;;5030599;28;20847;-70
2021/07/08 13:56:02;;;;;;;4.03;3.73;;;;;;;;;;5030596;28;20747;-70
2021/07/08 13:58:28;;;;;;;4.30;3.90;;;;;;;;;;5030484;28;20416;-74
2021/07/08 14:00:55;;;;;;;5.23;4.07;;;;;;;;;;5030398;28;20817;-74
2021/07/08 14:03:21;;;;;;;5.80;3.90;;;;;;;;;;5030542;28;20420;-72
2021/07/08 14:05:47;;;;;;;4.83;3.80;;;;;;;;;;5030356;28;20408;-70
2021/07/08 14:08:17;;;;;;;5.50;4.20;;;;;;;;;;5030261;28;20412;-72
2021/07/08 14:10:43;;;;;;;4.80;4.40;;;;;;;;;;5030258;28;20464;-73
2021/07/08 14:13:09;;;;;;;7.33;4.53;;;;;;;;;;5030353;28;20498;-72
2021/07/08 14:15:35;;;;;;;5.47;4.20;;;;;;;;;;5030219;28;20825;-72
2021/07/08 14:18:01;;;;;;;5.23;4.30;;;;;;;;;;5029954;28;20478;-73
2021/07/08 14:20:27;;;;;;;4.73;4.33;;;;;;;;;;5029821;28;20448;-74
2021/07/08 14:22:53;;;;;;;4.80;4.37;;;;;;;;;;5030168;28;20424;-73
2021/07/08 14:25:19;;;;;;;4.60;4.27;;;;;;;;;;5030183;28;20475;-74
2021/07/08 14:27:45;;;;;;;4.63;4.20;;;;;;;;;;5029728;28;20511;-72
2021/07/08 14:30:11;;;;;;;4.67;4.27;;;;;;;;;;5029055;28;21217;-71
2021/07/08 14:32:39;;;;;;;4.00;3.70;;;;;;;;;;5029843;28;20613;-74
2021/07/08 14:35:06;;;;;;;5.23;4.47;;;;;;;;;;5029262;28;20511;-76
2021/07/08 14:37:32;;;;;;;4.70;4.20;;;;;;;;;;5029682;28;20444;-74
2021/07/08 14:39:58;;;;;;;4.83;4.43;;;;;;;;;;5029792;28;20436;-72
2021/07/08 14:42:30;;;;;;;4.27;3.97;;;;;;;;;;5029805;28;20423;-72
2021/07/08 14:45:01;;;;;;;6.00;4.20;;;;;;;;;;5029801;28;20781;-74
2021/07/08 14:47:29;;;;;;;5.63;4.00;;;;;;;;;;5018801;28;20413;-74
2021/07/08 14:49:56;;;;;;;4.90;4.40;;;;;;;;;;5025529;28;20472;-73
2021/07/08 14:52:22;;;;;;;5.20;4.40;;;;;;;;;;5029608;28;20456;-70